»·PEaware :: EDG39 KPRC-KSAN

EDG39 :: KPRC-KSAN

FLIGHT INFORMATION

Flight Status: Arrived
Operator: Unknown
More flights by this operator :: More flights under this callsign
Pilot: Tanner C. (11250)
Aircraft: GULFSTREAM G-1159C GULFSTREAM 4
(GLF4)
More flights by this aircraft type
Origin: KPRC Love
United States
Destination: KSAN San Diego Intl-Lindbergh
United States
More flights between these airports :: More routes between these airports
Route: +PRC1 DRK J134 PKE BARET5
File this flight plan on PilotEdge
Remarks:
Altitude:
(Current/Filed)
32,000ft
Speed:
(Current/Filed)
500kts
Departed: 12-Jan-18 10:28 PM
Arrived: 12-Jan-18 11:21 PM
Distance/Time
Traveled:
259nm/0:53
Distance/Time
To Go:
Arrived

Flight Plot

Page will automatically refresh every two minutes.

Flight plan parsing failed; only flown route is shown


Map Options




Map Legend


Flown Route
Filed Route
Departure Airport
Arrival Airport
Navaid (VOR, NDB)
Fix

Horizontal Profiles

Position Reports

Time Latitude Longitude Heading Altitude Ground
Speed
12-Jan-18 22:19 34.655219 -112.421702 221 4991ft 0kts
12-Jan-18 22:20 34.655219 -112.421702 221 4991ft 0kts
12-Jan-18 22:21 34.655219 -112.421702 221 4991ft 0kts
12-Jan-18 22:22 34.655219 -112.421702 221 4991ft 0kts
12-Jan-18 22:23 34.655219 -112.421702 221 4991ft 0kts
12-Jan-18 22:24 34.655219 -112.421702 221 4991ft 0kts
12-Jan-18 22:25 34.655219 -112.421702 221 4991ft 0kts
12-Jan-18 22:26 34.655219 -112.421702 221 4991ft 0kts
12-Jan-18 22:27 34.655219 -112.421702 220 4991ft 0kts
12-Jan-18 22:28 34.655219 -112.421702 221 4991ft 0kts
12-Jan-18 22:29 34.655219 -112.421702 220 4991ft 0kts
12-Jan-18 22:30 34.656177 -112.420408 43 4986ft 13kts
12-Jan-18 22:31 34.657801 -112.417575 28 4974ft 13kts
12-Jan-18 22:32 34.661782 -112.413173 107 4955ft 6kts
12-Jan-18 22:33 34.660653 -112.412938 220 4957ft 2kts
12-Jan-18 22:34 34.627292 -112.444140 216 7309ft 221kts
12-Jan-18 22:35 34.613400 -112.502835 323 11695ft 252kts
12-Jan-18 22:36 34.691215 -112.511179 16 15364ft 287kts
12-Jan-18 22:37 34.762147 -112.512418 304 18000ft 274kts
12-Jan-18 22:38 34.775923 -112.610433 261 20841ft 372kts
12-Jan-18 22:39 34.731521 -112.731179 248 25565ft 417kts
12-Jan-18 22:40 34.686513 -112.863120 249 30164ft 441kts
12-Jan-18 22:41 34.638968 -113.002415 249 32308ft 472kts
12-Jan-18 22:42 34.589264 -113.148363 249 32344ft 473kts
12-Jan-18 22:43 34.539683 -113.294041 249 32344ft 473kts
12-Jan-18 22:44 34.490066 -113.439932 249 32328ft 472kts
12-Jan-18 22:45 34.440377 -113.586139 249 32315ft 472kts
12-Jan-18 22:46 34.390440 -113.730930 249 32240ft 473kts
12-Jan-18 22:47 34.340974 -113.876690 249 32238ft 473kts
12-Jan-18 22:48 34.291613 -114.022213 249 32237ft 473kts
12-Jan-18 22:49 34.245910 -114.156974 249 32237ft 473kts
12-Jan-18 22:50 34.196606 -114.302427 249 32236ft 473kts
12-Jan-18 22:51 34.147194 -114.448367 249 32235ft 473kts
12-Jan-18 22:52 34.097946 -114.593899 249 32234ft 473kts
12-Jan-18 22:53 34.051117 -114.732281 249 32240ft 473kts
12-Jan-18 22:54 34.001325 -114.877398 249 32239ft 473kts
12-Jan-18 22:55 33.952180 -115.022796 249 32211ft 473kts
12-Jan-18 22:56 33.902919 -115.168259 249 32210ft 472kts
12-Jan-18 22:57 33.864647 -115.281300 249 32208ft 472kts
12-Jan-18 22:58 33.807317 -115.450681 250 32207ft 472kts
12-Jan-18 22:59 33.757156 -115.562360 226 32228ft 482kts
12-Jan-18 23:00 33.683105 -115.667025 233 31216ft 482kts
12-Jan-18 23:01 33.612943 -115.775446 237 30727ft 461kts
12-Jan-18 23:02 33.538707 -115.903573 237 28621ft 476kts
12-Jan-18 23:03 33.463571 -116.033302 237 26526ft 483kts
12-Jan-18 23:04 33.393173 -116.154296 236 24538ft 479kts
12-Jan-18 23:05 33.305774 -116.255489 224 22660ft 418kts
12-Jan-18 23:06 33.222446 -116.343224 223 20143ft 402kts
12-Jan-18 23:07 33.139228 -116.430417 223 17701ft 402kts
12-Jan-18 23:08 33.055927 -116.517423 223 15301ft 391kts
12-Jan-18 23:09 32.978654 -116.597943 223 13145ft 356kts
12-Jan-18 23:10 32.899390 -116.648248 220 12072ft 297kts
12-Jan-18 23:11 32.857004 -116.726417 241 10679ft 317kts
12-Jan-18 23:12 32.812280 -116.815805 241 9326ft 311kts
12-Jan-18 23:13 32.772825 -116.894394 241 8475ft 293kts
12-Jan-18 23:14 32.737938 -116.969587 241 7305ft 257kts
12-Jan-18 23:15 32.716808 -117.046526 295 6206ft 250kts
12-Jan-18 23:16 32.750203 -117.118152 301 6157ft 247kts
12-Jan-18 23:17 32.782519 -117.188955 301 6155ft 248kts
12-Jan-18 23:18 32.811764 -117.252887 303 5970ft 240kts
12-Jan-18 23:19 32.844376 -117.324065 301 4552ft 251kts
12-Jan-18 23:20 32.868306 -117.396933 251 2731ft 243kts
12-Jan-18 23:21 32.819522 -117.398542 132 1986ft 189kts
12-Jan-18 23:22 32.787102 -117.355081 131 1974ft 178kts
12-Jan-18 23:23 32.762930 -117.311458 104 1976ft 154kts
12-Jan-18 23:24 32.753787 -117.274483 105 1354ft 154kts
12-Jan-18 23:25 32.742670 -117.227401 104 506ft 145kts
12-Jan-18 23:26 32.732114 -117.183463 106 21ft 67kts
12-Jan-18 23:27 32.731551 -117.176505 22 30ft 6kts
12-Jan-18 23:28 32.732116 -117.177176 289 31ft 5kts
12-Jan-18 23:29 32.737960 -117.208128 106 192ft 152kts
12-Jan-18 23:30 32.735353 -117.197356 103 77ft 147kts
12-Jan-18 23:31 32.731836 -117.179081 265 24ft 73kts
12-Jan-18 23:32 32.741784 -117.222168 291 337ft 217kts
12-Jan-18 23:33 32.707764 -117.253091 126 4524ft 219kts
12-Jan-18 23:34 32.696699 -117.190598 109 5078ft 210kts
12-Jan-18 23:35 32.695619 -117.128708 76 3780ft 196kts
12-Jan-18 23:36 32.716970 -117.084124 52 4046ft 129kts
12-Jan-18 23:37 32.749869 -117.068913 349 2487ft 154kts
12-Jan-18 23:38 32.785623 -117.084493 322 1304ft 141kts
12-Jan-18 23:39 32.809708 -117.123494 293 628ft 145kts
12-Jan-18 23:40 32.817281 -117.145009 204 418ft 12kts
12-Jan-18 23:41 32.801719 -117.107677 117 2033ft 287kts

Navigation Log

Ident Type
Flight plan parsing failed, navigation log unavailable